createdAt,value
2023-03-28T00:16:51.245Z,1.30
2023-03-28T00:36:51.032Z,1.20
2023-03-28T00:56:50.822Z,0.90
2023-03-28T01:16:50.451Z,0.70
2023-03-28T01:36:50.193Z,0.90
2023-03-28T01:56:50.006Z,0.70
2023-03-28T02:16:49.755Z,1.20
2023-03-28T02:36:49.434Z,1.00
2023-03-28T02:56:49.202Z,2.30
2023-03-28T03:16:48.852Z,2.70
2023-03-28T03:36:48.588Z,1.40
2023-03-28T03:56:48.363Z,1.00
2023-03-28T04:16:48.002Z,0.80
2023-03-28T04:36:47.785Z,0.70
2023-03-28T04:56:47.563Z,1.10
2023-03-28T05:16:47.272Z,1.10
2023-03-28T05:36:46.905Z,2.80
2023-03-28T05:56:46.660Z,1.80
2023-03-28T06:16:46.388Z,1.90
2023-03-28T06:36:46.116Z,0.80
2023-03-28T06:56:45.906Z,1.20
2023-03-28T07:16:45.594Z,4.00
2023-03-28T07:36:45.332Z,1.40
2023-03-28T07:56:46.064Z,1.40
2023-03-28T08:16:44.767Z,1.00
2023-03-28T08:36:44.492Z,2.10
2023-03-28T08:56:47.022Z,2.40
2023-03-28T09:16:44.043Z,2.60
2023-03-28T09:36:48.998Z,1.90
2023-03-28T09:56:44.457Z,2.00
2023-03-28T10:16:43.853Z,2.50
2023-03-28T10:36:42.894Z,5.10
2023-03-28T10:56:42.660Z,2.20
2023-03-28T11:16:42.513Z,3.30
2023-03-28T11:36:42.091Z,6.00
2023-03-28T11:56:41.815Z,1.20
2023-03-28T12:16:42.244Z,2.20
2023-03-28T12:36:41.253Z,2.20
2023-03-28T12:56:41.008Z,2.20
2023-03-28T13:16:40.725Z,2.30
2023-03-28T13:36:40.483Z,3.50
2023-03-28T13:56:40.276Z,2.00
2023-03-28T14:16:40.012Z,1.70
2023-03-28T14:36:39.676Z,2.70
2023-03-28T14:56:39.398Z,0.80
2023-03-28T15:16:39.155Z,2.60
2023-03-28T15:36:38.869Z,2.00
2023-03-28T15:56:38.645Z,4.40
2023-03-28T16:16:38.402Z,3.50
2023-03-28T16:36:38.083Z,3.50
2023-03-28T16:56:37.785Z,2.40
2023-03-28T17:16:37.558Z,2.20
2023-03-28T17:36:37.240Z,5.00
2023-03-28T17:56:37.011Z,8.50
2023-03-28T18:16:36.754Z,9.00
2023-03-28T18:36:36.438Z,4.30
2023-03-28T18:56:36.236Z,3.90
2023-03-28T19:16:35.941Z,3.80
2023-03-28T19:36:35.665Z,3.60
2023-03-28T19:56:35.404Z,5.10
2023-03-28T20:16:35.113Z,6.70
2023-03-28T20:36:34.866Z,5.10
2023-03-28T20:56:34.549Z,6.90
2023-03-28T21:16:34.316Z,4.40
2023-03-28T21:36:34.008Z,4.80
2023-03-28T21:56:33.730Z,6.80
2023-03-28T22:16:33.534Z,6.30
2023-03-28T22:36:33.183Z,2.90
2023-03-28T22:56:32.917Z,5.10
2023-03-28T23:16:32.714Z,3.20
2023-03-28T23:36:32.370Z,4.00
2023-03-28T23:56:32.120Z,5.20
